Time;durP1;ratioP1;P1;durP2;ratioP2;P2;SDS_P1;SDS_P2;PMS_P1;PMS_P2;Temp;Humidity;BMP_temperature;BMP_pressure;BME280_temperature;BME280_humidity;BME280_pressure;Samples;Min_cycle;Max_cycle;Signal;HPM_P1;HPM_P2
2022/08/07 00:01:35;;;;;;;5.95;4.18;;;12.00;76.80;;;;;;5047741;28;20519;-65
2022/08/07 00:04:02;;;;;;;6.32;4.10;;;12.00;77.90;;;;;;5062973;28;20048;-65
2022/08/07 00:06:27;;;;;;;7.07;4.65;;;12.00;77.30;;;;;;5048391;28;20544;-65
2022/08/07 00:08:53;;;;;;;5.83;3.57;;;11.90;77.80;;;;;;5065015;28;20047;-65
2022/08/07 00:11:19;;;;;;;5.90;4.50;;;11.90;77.50;;;;;;5047435;28;20443;-65
2022/08/07 00:13:46;;;;;;;6.20;4.00;;;11.90;78.40;;;;;;5064518;28;20032;-65
2022/08/07 00:16:12;;;;;;;6.25;3.97;;;11.90;77.50;;;;;;5048465;28;20524;-65
2022/08/07 00:18:38;;;;;;;5.32;3.50;;;11.90;77.80;;;;;;5048632;28;20116;-65
2022/08/07 00:21:06;;;;;;;5.87;4.13;;;11.80;77.60;;;;;;5062954;28;20496;-65
2022/08/07 00:23:34;;;;;;;4.82;3.80;;;11.80;77.40;;;;;;5062989;28;20101;-65
2022/08/07 00:26:01;;;;;;;6.32;3.60;;;11.80;77.20;;;;;;5060237;28;20057;-66
2022/08/07 00:28:28;;;;;;;4.65;3.67;;;11.80;77.50;;;;;;5062699;28;20052;-66
2022/08/07 00:30:53;;;;;;;5.53;3.58;;;11.80;77.20;;;;;;5047641;28;20047;-65
2022/08/07 00:33:21;;;;;;;6.63;4.20;;;11.80;77.20;;;;;;5064200;28;20048;-65
2022/08/07 00:35:46;;;;;;;5.63;4.00;;;11.80;78.50;;;;;;5048246;28;20527;-65
2022/08/07 00:38:12;;;;;;;6.00;4.07;;;11.70;79.60;;;;;;5045639;28;20037;-65
2022/08/07 00:40:38;;;;;;;6.90;4.47;;;11.70;79.30;;;;;;5078100;28;20421;-65
2022/08/07 00:43:04;;;;;;;6.87;4.10;;;11.60;79.10;;;;;;5059831;28;20052;-65
2022/08/07 00:45:30;;;;;;;5.18;3.78;;;11.60;78.90;;;;;;5059491;28;20044;-65
2022/08/07 00:47:55;;;;;;;6.50;4.03;;;11.60;78.70;;;;;;5047102;28;20502;-65
2022/08/07 00:50:21;;;;;;;6.63;4.57;;;11.60;78.30;;;;;;5068529;28;20485;-65
2022/08/07 00:52:47;;;;;;;6.80;4.40;;;11.60;78.40;;;;;;5038470;28;20033;-65
2022/08/07 00:55:12;;;;;;;7.50;4.03;;;11.60;78.60;;;;;;5062073;28;20048;-65
2022/08/07 00:57:38;;;;;;;6.87;4.20;;;11.60;78.40;;;;;;5067932;28;20500;-65
2022/08/07 01:00:07;;;;;;;6.43;4.23;;;11.60;78.80;;;;;;5068728;28;20076;-66
2022/08/07 01:02:33;;;;;;;6.45;4.18;;;11.60;78.70;;;;;;5060856;28;20049;-65
2022/08/07 01:04:58;;;;;;;5.53;3.93;;;11.60;79.10;;;;;;5044787;28;20086;-65
2022/08/07 01:07:25;;;;;;;5.77;4.10;;;11.60;79.20;;;;;;5050760;28;20306;-65
2022/08/07 01:09:51;;;;;;;5.20;4.05;;;11.70;79.30;;;;;;5064661;28;20485;-65
2022/08/07 01:12:17;;;;;;;6.53;4.37;;;11.70;79.40;;;;;;5068041;28;20036;-65
2022/08/07 01:14:43;;;;;;;5.13;3.85;;;11.70;79.10;;;;;;5080997;28;20047;-65
2022/08/07 01:17:10;;;;;;;7.20;4.05;;;11.70;79.00;;;;;;5051939;28;20093;-65
2022/08/07 01:19:36;;;;;;;6.93;4.20;;;11.80;79.00;;;;;;5051737;28;20060;-65
2022/08/07 01:22:02;;;;;;;7.53;4.00;;;11.80;79.00;;;;;;5061351;28;20048;-65
2022/08/07 01:24:29;;;;;;;6.25;4.05;;;11.80;79.30;;;;;;5067884;28;20293;-65
2022/08/07 01:26:55;;;;;;;8.15;4.40;;;11.80;79.30;;;;;;5068320;28;20445;-65
2022/08/07 01:29:27;;;;;;;6.90;4.60;;;11.80;79.40;;;;;;5064408;28;20494;-65
2022/08/07 01:31:54;;;;;;;6.75;4.03;;;11.80;79.40;;;;;;5048421;28;20454;-65
2022/08/07 01:34:20;;;;;;;7.60;4.43;;;11.80;80.00;;;;;;5064630;28;20095;-65
2022/08/07 01:36:47;;;;;;;7.20;4.40;;;11.90;79.70;;;;;;5062562;28;20072;-65
2022/08/07 01:39:14;;;;;;;6.70;4.53;;;11.90;79.90;;;;;;5067844;28;20052;-66
2022/08/07 01:41:42;;;;;;;8.68;5.15;;;11.90;80.40;;;;;;5050456;28;20302;-65
2022/08/07 01:44:09;;;;;;;7.32;4.47;;;12.00;80.20;;;;;;5067800;28;20501;-65
2022/08/07 01:46:35;;;;;;;8.07;5.05;;;12.00;80.00;;;;;;5068131;28;20044;-65
2022/08/07 01:49:01;;;;;;;9.13;5.30;;;12.00;79.70;;;;;;5049110;28;20051;-65
2022/08/07 01:51:29;;;;;;;6.63;5.10;;;12.00;79.70;;;;;;5054699;28;20119;-65
2022/08/07 01:53:57;;;;;;;9.13;5.10;;;12.10;79.40;;;;;;5051585;28;20286;-65
2022/08/07 01:56:28;;;;;;;10.30;5.70;;;12.10;79.50;;;;;;5064187;28;20044;-65
2022/08/07 01:59:13;;;;;;;7.25;5.30;;;12.10;79.60;;;;;;5068032;28;20081;-65
2022/08/07 02:01:47;;;;;;;7.85;5.47;;;12.00;79.50;;;;;;5049585;28;20564;-65
2022/08/07 02:04:17;;;;;;;9.30;5.13;;;12.00;79.30;;;;;;5051010;28;20102;-65
2022/08/07 02:06:44;;;;;;;6.95;5.35;;;12.00;79.30;;;;;;5050583;28;20064;-65
2022/08/07 02:09:13;;;;;;;7.53;5.80;;;11.90;79.30;;;;;;5066680;28;20044;-66
2022/08/07 02:11:42;;;;;;;7.80;5.78;;;11.90;79.40;;;;;;5066010;28;20085;-65
2022/08/07 02:14:10;;;;;;;7.50;5.40;;;11.90;79.30;;;;;;5074819;28;20511;-65
2022/08/07 02:16:38;;;;;;;7.88;5.80;;;11.90;79.20;;;;;;5067605;28;20508;-65
2022/08/07 02:19:08;;;;;;;10.75;6.25;;;11.80;79.10;;;;;;5048883;28;20040;-65
2022/08/07 02:21:38;;;;;;;7.72;5.15;;;11.70;80.50;;;;;;5083541;28;20559;-65
2022/08/07 02:24:04;;;;;;;8.75;6.22;;;11.70;80.10;;;;;;5066016;28;20044;-65
2022/08/07 02:26:33;;;;;;;8.52;6.10;;;11.60;79.90;;;;;;5042226;28;20045;-65
2022/08/07 02:29:01;;;;;;;8.40;5.65;;;11.60;80.00;;;;;;5066754;28;20059;-66
2022/08/07 02:31:28;;;;;;;8.32;6.03;;;11.60;80.00;;;;;;5049825;28;20044;-65
2022/08/07 02:33:56;;;;;;;8.25;6.50;;;11.50;79.90;;;;;;5064483;28;20053;-65
2022/08/07 02:36:22;;;;;;;8.27;5.90;;;11.50;80.00;;;;;;5065998;28;20056;-65
2022/08/07 02:38:50;;;;;;;7.90;5.28;;;11.50;80.00;;;;;;5062303;28;20044;-65
2022/08/07 02:41:16;;;;;;;8.48;5.85;;;11.40;79.90;;;;;;5049700;28;20052;-65
2022/08/07 02:43:43;;;;;;;9.38;6.20;;;11.40;79.90;;;;;;5082765;28;20048;-65
2022/08/07 02:46:11;;;;;;;8.70;5.90;;;11.40;79.90;;;;;;5067202;28;20041;-65
2022/08/07 02:48:39;;;;;;;8.38;6.00;;;11.30;80.60;;;;;;5049131;28;20040;-65
2022/08/07 02:51:10;;;;;;;8.77;6.57;;;11.30;80.40;;;;;;5069341;28;20036;-65
2022/08/07 02:53:38;;;;;;;7.47;5.65;;;11.30;80.80;;;;;;5066806;28;20416;-66
2022/08/07 02:56:07;;;;;;;9.60;6.43;;;11.30;80.60;;;;;;5049732;28;20037;-65
2022/08/07 02:58:35;;;;;;;8.80;6.40;;;11.20;80.60;;;;;;5065784;28;20319;-65
2022/08/07 03:01:01;;;;;;;7.88;6.05;;;11.20;80.60;;;;;;5064343;28;20040;-65
2022/08/07 03:03:31;;;;;;;7.65;5.75;;;11.20;80.50;;;;;;5049343;28;20036;-65
2022/08/07 03:05:58;;;;;;;7.97;6.22;;;11.20;80.60;;;;;;5049612;28;20079;-66
2022/08/07 03:08:25;;;;;;;8.73;5.95;;;11.20;80.60;;;;;;5032673;28;20131;-65
2022/08/07 03:10:51;;;;;;;7.80;5.90;;;11.20;81.00;;;;;;5045081;28;20040;-65
2022/08/07 03:13:17;;;;;;;8.35;5.95;;;11.20;81.40;;;;;;5060290;28;20047;-65
2022/08/07 03:15:44;;;;;;;10.75;7.15;;;11.20;81.20;;;;;;5066862;28;20439;-65
2022/08/07 03:18:11;;;;;;;8.55;6.20;;;11.10;81.10;;;;;;5064006;28;20051;-65
2022/08/07 03:20:38;;;;;;;11.40;6.47;;;11.10;81.60;;;;;;5049086;28;20374;-65
2022/08/07 03:23:06;;;;;;;10.43;6.97;;;11.10;81.30;;;;;;5065219;28;20052;-65
2022/08/07 03:25:33;;;;;;;8.43;6.53;;;11.10;81.50;;;;;;5062213;28;20040;-65
2022/08/07 03:28:00;;;;;;;7.07;5.80;;;11.00;81.40;;;;;;5048634;28;20044;-65
2022/08/07 03:30:28;;;;;;;9.75;5.93;;;11.00;81.40;;;;;;5065034;28;20064;-65
2022/08/07 03:32:55;;;;;;;11.13;6.55;;;11.00;81.40;;;;;;5015650;28;20083;-65
2022/08/07 03:35:24;;;;;;;8.85;6.28;;;11.00;81.30;;;;;;5042980;28;20057;-65
2022/08/07 03:38:00;;;;;;;9.55;6.82;;;11.00;81.00;;;;;;5065012;28;20552;-65
2022/08/07 03:40:26;;;;;;;9.00;5.85;;;11.00;81.10;;;;;;5054272;28;20493;-65
2022/08/07 03:42:53;;;;;;;9.85;6.03;;;10.90;81.60;;;;;;5063195;28;20040;-65
2022/08/07 03:45:22;;;;;;;8.35;5.82;;;10.90;81.70;;;;;;5047688;28;20053;-65
2022/08/07 03:47:48;;;;;;;9.25;5.85;;;10.90;81.30;;;;;;5059235;28;20032;-65
2022/08/07 03:50:16;;;;;;;8.82;5.93;;;10.90;81.30;;;;;;5064602;28;20036;-65
2022/08/07 03:52:44;;;;;;;9.57;6.28;;;10.80;81.10;;;;;;5065288;28;20048;-65
2022/08/07 03:55:10;;;;;;;6.88;5.28;;;10.80;81.20;;;;;;5044933;28;20066;-65
2022/08/07 03:57:39;;;;;;;7.20;4.82;;;10.80;81.50;;;;;;5065114;28;20040;-65
2022/08/07 04:00:06;;;;;;;9.20;6.03;;;10.80;81.10;;;;;;5058326;28;20040;-65
2022/08/07 04:02:33;;;;;;;9.57;6.35;;;10.80;81.10;;;;;;5063435;28;20322;-65
2022/08/07 04:04:58;;;;;;;9.20;5.57;;;10.80;81.10;;;;;;5048173;28;20044;-65
2022/08/07 04:07:24;;;;;;;9.10;5.80;;;10.80;81.30;;;;;;5064539;28;20578;-65
2022/08/07 04:09:51;;;;;;;8.57;6.23;;;10.80;81.10;;;;;;5047935;28;20444;-65
2022/08/07 04:12:17;;;;;;;8.00;5.75;;;10.80;81.30;;;;;;5047639;28;20090;-65
2022/08/07 04:14:43;;;;;;;11.18;6.88;;;10.80;81.00;;;;;;5032250;28;20044;-65
2022/08/07 04:17:10;;;;;;;9.23;6.50;;;10.80;81.40;;;;;;5064479;28;20427;-65
2022/08/07 04:19:38;;;;;;;11.90;6.80;;;10.80;81.30;;;;;;5048276;28;20047;-65
2022/08/07 04:22:04;;;;;;;9.60;6.45;;;10.90;81.30;;;;;;5064264;28;20032;-65
2022/08/07 04:24:31;;;;;;;8.57;6.00;;;10.90;81.40;;;;;;5060028;28;20516;-65
2022/08/07 04:26:58;;;;;;;9.93;6.50;;;10.90;81.40;;;;;;5059410;28;20037;-65
2022/08/07 04:29:24;;;;;;;8.73;6.45;;;11.00;81.60;;;;;;5059576;28;20053;-65
2022/08/07 04:31:50;;;;;;;10.10;6.30;;;11.00;81.50;;;;;;5057131;28;20426;-65
2022/08/07 04:34:16;;;;;;;10.90;6.67;;;11.00;81.50;;;;;;5064079;28;20050;-65
2022/08/07 04:36:42;;;;;;;8.40;5.70;;;11.10;81.90;;;;;;5065417;28;20775;-65
2022/08/07 04:39:08;;;;;;;9.33;6.10;;;11.10;81.70;;;;;;5063942;28;20039;-65
2022/08/07 04:41:34;;;;;;;8.18;5.80;;;11.10;82.10;;;;;;5063196;28;20500;-65
2022/08/07 04:44:01;;;;;;;8.30;5.73;;;11.10;81.80;;;;;;5059097;28;20049;-65
2022/08/07 04:46:44;;;;;;;9.02;5.80;;;11.10;81.70;;;;;;5045027;28;20141;-65
2022/08/07 04:49:20;;;;;;;7.50;4.95;;;11.20;81.90;;;;;;5058452;28;20401;-65
2022/08/07 04:52:10;;;;;;;9.10;5.50;;;11.20;81.80;;;;;;5050857;28;20044;-65
2022/08/07 04:55:00;;;;;;;6.68;5.18;;;11.30;81.50;;;;;;5060386;28;20076;-65
2022/08/07 04:57:40;;;;;;;9.20;6.15;;;11.30;81.60;;;;;;5064531;28;20341;-65
2022/08/07 05:00:11;;;;;;;10.32;5.72;;;11.40;81.60;;;;;;5063687;28;20039;-65
2022/08/07 05:02:40;;;;;;;8.48;6.18;;;11.40;81.60;;;;;;5056519;28;20484;-65
2022/08/07 05:05:17;;;;;;;9.82;5.72;;;11.50;81.60;;;;;;5048029;28;20110;-65
2022/08/07 05:07:46;;;;;;;9.38;5.88;;;11.60;81.30;;;;;;5062286;28;20043;-65
2022/08/07 05:10:20;;;;;;;8.73;5.55;;;11.70;81.30;;;;;;5045658;28;20089;-65
2022/08/07 05:13:00;;;;;;;8.70;5.75;;;11.80;81.20;;;;;;5064007;28;20043;-65
2022/08/07 05:15:30;;;;;;;9.48;5.60;;;11.90;81.40;;;;;;5064392;28;20028;-65
2022/08/07 05:18:01;;;;;;;10.15;6.38;;;12.00;81.20;;;;;;5064399;28;20055;-65
2022/08/07 05:20:33;;;;;;;8.25;5.22;;;12.10;81.40;;;;;;5065258;28;20063;-65
2022/08/07 05:23:07;;;;;;;8.25;5.53;;;12.30;81.10;;;;;;5062351;28;20131;-66
2022/08/07 05:25:34;;;;;;;8.18;5.20;;;12.50;81.10;;;;;;5063974;28;20115;-66
2022/08/07 05:28:01;;;;;;;9.02;4.88;;;12.90;80.70;;;;;;5060653;28;20624;-66
2022/08/07 05:30:28;;;;;;;8.17;4.93;;;13.20;79.60;;;;;;5063579;28;20115;-66
2022/08/07 05:32:55;;;;;;;7.47;4.80;;;13.40;79.00;;;;;;5064055;28;20367;-65
2022/08/07 05:35:22;;;;;;;8.23;5.20;;;13.40;78.70;;;;;;5063850;28;20282;-66
2022/08/07 05:37:49;;;;;;;7.50;5.13;;;13.50;78.80;;;;;;5039727;28;20303;-66
2022/08/07 05:40:16;;;;;;;9.27;4.90;;;13.50;78.80;;;;;;5060841;28;20673;-66
2022/08/07 05:42:44;;;;;;;6.60;4.50;;;13.60;78.90;;;;;;5066063;28;20904;-66
2022/08/07 05:45:10;;;;;;;7.23;4.70;;;13.60;78.90;;;;;;5047804;28;20374;-66
2022/08/07 05:47:37;;;;;;;6.87;4.43;;;13.70;78.80;;;;;;5031877;28;20894;-66
2022/08/07 05:50:04;;;;;;;7.23;4.93;;;13.70;78.60;;;;;;5065647;28;20295;-66
2022/08/07 05:52:31;;;;;;;8.50;4.87;;;13.80;78.60;;;;;;5050601;28;20275;-66
2022/08/07 05:54:57;;;;;;;6.43;5.00;;;13.90;78.40;;;;;;5050808;28;20279;-66
2022/08/07 05:57:24;;;;;;;8.77;4.90;;;14.00;77.80;;;;;;5050996;28;20659;-66
2022/08/07 05:59:50;;;;;;;8.60;4.50;;;14.10;77.30;;;;;;5066850;28;20512;-66
2022/08/07 06:02:18;;;;;;;6.77;4.57;;;14.20;77.00;;;;;;5083773;28;20287;-66
2022/08/07 06:04:58;;;;;;;6.13;4.27;;;14.30;77.00;;;;;;5050843;28;20319;-66
2022/08/07 06:07:24;;;;;;;6.47;4.53;;;14.40;76.80;;;;;;5067189;28;20409;-66
2022/08/07 06:09:50;;;;;;;6.63;4.60;;;14.50;76.60;;;;;;5031543;28;20290;-66
2022/08/07 06:12:16;;;;;;;7.03;4.20;;;14.60;76.40;;;;;;5064983;28;20294;-66
2022/08/07 06:14:42;;;;;;;6.43;4.30;;;14.70;76.10;;;;;;5067514;28;20119;-66
2022/08/07 06:17:08;;;;;;;6.00;4.50;;;14.80;76.00;;;;;;5050919;28;20289;-66
2022/08/07 06:19:34;;;;;;;6.60;4.13;;;15.00;75.90;;;;;;5084270;28;20293;-66
2022/08/07 06:22:01;;;;;;;6.83;3.83;;;15.10;75.70;;;;;;5072918;28;20290;-66
2022/08/07 06:24:28;;;;;;;7.00;4.20;;;15.10;75.20;;;;;;5067267;28;21051;-66
2022/08/07 06:26:54;;;;;;;5.50;3.87;;;15.30;74.60;;;;;;5066770;28;20381;-66
2022/08/07 06:29:26;;;;;;;6.73;3.60;;;15.40;74.60;;;;;;5055789;28;20398;-66
2022/08/07 06:31:51;;;;;;;5.40;3.50;;;15.60;74.40;;;;;;5060664;28;20123;-66
2022/08/07 06:34:17;;;;;;;6.33;4.03;;;15.80;74.30;;;;;;5063059;28;20366;-66
2022/08/07 06:36:43;;;;;;;7.13;4.00;;;16.00;72.80;;;;;;5050267;28;20504;-66
2022/08/07 06:39:08;;;;;;;5.63;3.67;;;16.30;72.00;;;;;;5050446;28;20545;-66
2022/08/07 06:42:25;;;;;;;6.27;3.90;;;16.80;71.60;;;;;;5066362;28;20059;-66
2022/08/07 06:44:53;;;;;;;5.50;3.50;;;17.70;68.80;;;;;;5040921;28;20451;-66
2022/08/07 06:47:19;;;;;;;6.60;3.83;;;18.50;66.10;;;;;;5049787;28;20295;-66
2022/08/07 06:49:45;;;;;;;5.17;3.43;;;18.90;64.00;;;;;;5034480;28;20685;-66
2022/08/07 06:52:14;;;;;;;7.40;3.50;;;19.10;63.00;;;;;;5049715;28;20052;-66
2022/08/07 06:54:41;;;;;;;6.20;3.23;;;19.40;62.40;;;;;;5066359;28;20041;-66
2022/08/07 06:57:08;;;;;;;5.43;3.47;;;19.80;60.90;;;;;;5066387;28;20659;-66
2022/08/07 06:59:41;;;;;;;5.00;3.10;;;20.10;60.40;;;;;;5049557;28;20306;-66
2022/08/07 07:02:14;;;;;;;3.90;3.10;;;20.30;59.70;;;;;;5050208;28;20849;-66
2022/08/07 07:04:42;;;;;;;5.37;3.00;;;20.40;59.20;;;;;;5066205;28;20287;-66
2022/08/07 07:07:07;;;;;;;5.23;3.03;;;20.30;59.70;;;;;;5050010;28;20333;-66
2022/08/07 07:09:33;;;;;;;5.53;2.80;;;19.80;59.80;;;;;;5049135;28;20333;-66
2022/08/07 07:12:21;;;;;;;4.10;2.40;;;19.20;60.60;;;;;;5061815;28;20036;-66
2022/08/07 07:15:03;;;;;;;3.00;2.23;;;18.70;60.50;;;;;;5065830;28;20097;-66
2022/08/07 07:17:42;;;;;;;3.73;2.23;;;18.30;62.00;;;;;;5064419;28;20297;-66
2022/08/07 07:20:15;;;;;;;5.57;2.63;;;18.10;62.80;;;;;;5066132;28;20294;-66
2022/08/07 07:22:42;;;;;;;4.93;2.60;;;18.00;63.20;;;;;;5065145;28;20614;-66
2022/08/07 07:25:10;;;;;;;3.00;2.00;;;17.90;64.00;;;;;;5066316;28;20373;-66
2022/08/07 07:27:43;;;;;;;3.90;2.30;;;17.90;64.00;;;;;;5074492;28;20368;-66
2022/08/07 07:30:11;;;;;;;4.27;2.00;;;17.90;63.80;;;;;;5061837;28;20290;-66
2022/08/07 07:32:39;;;;;;;4.50;2.00;;;17.90;63.70;;;;;;5063915;28;20751;-66
2022/08/07 07:35:08;;;;;;;3.23;2.10;;;17.90;63.60;;;;;;5062274;28;20294;-66
2022/08/07 07:37:35;;;;;;;3.67;2.53;;;18.00;64.00;;;;;;5061970;28;20294;-66
2022/08/07 07:40:04;;;;;;;4.10;2.70;;;18.10;63.70;;;;;;5065125;28;20314;-66
2022/08/07 07:42:32;;;;;;;3.17;2.20;;;18.10;63.60;;;;;;5062780;28;20286;-66
2022/08/07 07:45:03;;;;;;;4.73;2.53;;;18.20;64.10;;;;;;5062551;28;20329;-66
2022/08/07 07:47:30;;;;;;;4.37;2.27;;;18.20;63.80;;;;;;5034435;28;20307;-66
2022/08/07 07:49:57;;;;;;;4.80;2.23;;;18.40;64.00;;;;;;5054911;28;20763;-66
2022/08/07 07:52:25;;;;;;;3.77;2.13;;;18.50;63.60;;;;;;5057119;28;20290;-66
2022/08/07 07:54:53;;;;;;;3.80;2.33;;;18.50;63.20;;;;;;5061446;28;20283;-66
2022/08/07 07:57:21;;;;;;;3.30;2.33;;;18.60;62.90;;;;;;5063336;28;20306;-66
2022/08/07 07:59:49;;;;;;;3.27;2.30;;;18.60;62.40;;;;;;5046903;28;20274;-66
2022/08/07 08:02:15;;;;;;;4.63;2.10;;;18.60;62.50;;;;;;5063184;28;20322;-66
2022/08/07 08:04:43;;;;;;;3.70;2.07;;;18.70;62.40;;;;;;5044295;28;20289;-66
2022/08/07 08:07:10;;;;;;;6.80;2.03;;;18.80;62.20;;;;;;5031739;28;20368;-66
2022/08/07 08:09:37;;;;;;;5.77;2.47;;;18.80;62.40;;;;;;5051994;28;20290;-66
2022/08/07 08:12:04;;;;;;;4.00;2.30;;;18.90;62.30;;;;;;5062587;28;20286;-66
2022/08/07 08:14:34;;;;;;;3.73;2.67;;;19.00;62.00;;;;;;5047934;28;20429;-66
2022/08/07 08:17:02;;;;;;;4.50;2.73;;;19.10;61.40;;;;;;5037507;28;20374;-66
2022/08/07 08:19:31;;;;;;;3.93;2.80;;;19.00;61.30;;;;;;5037503;28;20278;-66
2022/08/07 08:27:33;;;;;;;5.53;2.80;;;19.20;61.20;;;;;;5052995;28;20299;-66
2022/08/07 08:30:02;;;;;;;4.60;2.33;;;19.30;61.50;;;;;;5050021;28;20854;-66
2022/08/07 08:32:30;;;;;;;5.07;3.10;;;19.60;61.20;;;;;;5073889;28;20299;-66
2022/08/07 08:34:58;;;;;;;4.93;2.67;;;19.70;59.20;;;;;;5065873;28;20362;-66
2022/08/07 08:37:27;;;;;;;7.67;2.83;;;19.80;59.60;;;;;;5040075;28;20127;-66
2022/08/07 08:39:54;;;;;;;2.70;2.10;;;19.70;59.60;;;;;;5049672;28;20365;-66
2022/08/07 08:42:27;;;;;;;4.70;2.20;;;19.50;59.50;;;;;;5038080;28;20297;-66
2022/08/07 08:45:18;;;;;;;3.17;2.27;;;19.50;59.80;;;;;;5050744;28;20145;-66
2022/08/07 08:48:07;;;;;;;4.37;2.33;;;19.70;60.10;;;;;;5055944;28;20299;-66
2022/08/07 08:50:46;;;;;;;3.50;2.77;;;20.00;60.00;;;;;;5058580;28;20698;-66
2022/08/07 08:53:48;;;;;;;4.47;2.47;;;20.20;59.40;;;;;;5058040;28;20150;-66
2022/08/07 08:56:24;;;;;;;3.83;2.57;;;20.50;59.20;;;;;;5035388;28;20059;-66
2022/08/07 08:59:06;;;;;;;4.00;2.60;;;20.90;58.70;;;;;;5078123;28;20048;-66
2022/08/07 09:01:54;;;;;;;5.53;2.70;;;21.20;58.70;;;;;;5039930;28;20099;-66
2022/08/07 09:04:42;;;;;;;4.57;2.43;;;21.30;56.00;;;;;;5048938;28;20044;-66
2022/08/07 09:07:21;;;;;;;3.30;2.30;;;21.30;57.70;;;;;;5056904;28;20332;-66
2022/08/07 09:10:00;;;;;;;4.20;2.83;;;21.50;55.90;;;;;;5050567;28;20040;-66
2022/08/07 09:12:52;;;;;;;4.13;2.30;;;21.60;57.00;;;;;;5067900;28;20033;-66
2022/08/07 09:15:18;;;;;;;4.90;2.20;;;21.70;56.40;;;;;;5062032;28;20040;-66
2022/08/07 09:18:05;;;;;;;3.60;2.37;;;21.80;56.60;;;;;;5062182;28;20045;-67
2022/08/07 09:21:11;;;;;;;4.30;2.20;;;22.00;55.70;;;;;;5069881;28;20607;-67
2022/08/07 09:24:08;;;;;;;5.53;2.30;;;22.00;56.20;;;;;;5026852;28;20103;-67
2022/08/07 09:26:50;;;;;;;5.27;2.40;;;22.20;55.60;;;;;;5065450;28;20069;-66
2022/08/07 09:29:45;;;;;;;3.07;2.17;;;22.30;53.90;;;;;;5061741;28;20047;-67
2022/08/07 09:32:30;;;;;;;;;;;22.30;54.40;;;;;;5064969;28;20040;-67
2022/08/07 09:35:28;;;;;;;3.13;1.97;;;22.30;53.80;;;;;;5061205;28;20184;-67
2022/08/07 09:38:02;;;;;;;3.57;1.90;;;21.90;54.20;;;;;;5012207;28;20063;-66
2022/08/07 09:40:38;;;;;;;4.00;2.08;;;21.80;54.60;;;;;;5062471;28;20028;-67
2022/08/07 09:43:16;;;;;;;3.80;2.23;;;21.50;53.60;;;;;;5066214;28;20114;-66
2022/08/07 09:46:06;;;;;;;3.67;2.10;;;21.40;54.30;;;;;;5063893;28;20544;-66
2022/08/07 09:48:53;;;;;;;2.90;1.90;;;21.20;53.80;;;;;;5031647;28;20054;-66
2022/08/07 09:51:40;;;;;;;4.63;2.43;;;20.90;55.20;;;;;;5067341;28;20048;-67
2022/08/07 09:54:13;;;;;;;4.77;2.40;;;21.20;56.80;;;;;;5066381;28;20149;-67
2022/08/07 09:56:50;;;;;;;4.27;2.10;;;21.50;55.80;;;;;;5082534;28;20067;-67
2022/08/07 09:59:37;;;;;;;3.60;2.87;;;21.50;54.30;;;;;;5069861;28;20037;-67
2022/08/07 10:02:38;;;;;;;3.70;2.50;;;21.30;55.80;;;;;;5080105;28;20102;-67
2022/08/07 10:05:31;;;;;;;5.23;2.70;;;20.80;55.90;;;;;;5030416;28;20044;-67
2022/08/07 10:08:25;;;;;;;6.20;2.80;;;20.40;56.80;;;;;;5052380;28;20067;-67
2022/08/07 10:11:17;;;;;;;2.60;2.40;;;20.40;57.80;;;;;;5060350;28;20331;-66
2022/08/07 10:14:05;;;;;;;5.13;2.40;;;20.70;57.60;;;;;;5080404;28;20453;-66
2022/08/07 10:17:12;;;;;;;4.77;2.57;;;21.30;56.60;;;;;;5064989;28;20101;-67
2022/08/07 10:19:57;;;;;;;3.30;2.20;;;21.70;56.10;;;;;;5022292;28;20493;-67
2022/08/07 10:22:47;;;;;;;2.70;2.07;;;22.40;54.90;;;;;;5053482;28;20713;-66
2022/08/07 10:25:53;;;;;;;3.57;1.87;;;22.60;53.30;;;;;;5065712;28;20485;-67
2022/08/07 10:28:37;;;;;;;3.20;2.33;;;22.50;52.50;;;;;;5039993;28;20129;-67
2022/08/07 10:31:40;;;;;;;4.33;2.17;;;22.10;53.50;;;;;;5052198;28;20048;-67
2022/08/07 10:34:24;;;;;;;4.67;2.40;;;22.30;54.70;;;;;;5079810;28;20286;-67
2022/08/07 10:37:11;;;;;;;4.07;2.07;;;22.70;52.90;;;;;;5064729;28;20044;-67
2022/08/07 10:39:45;;;;;;;3.53;2.10;;;22.90;51.10;;;;;;5064929;28;20181;-67
2022/08/07 10:42:30;;;;;;;3.00;2.40;;;22.90;51.30;;;;;;5041649;28;20513;-68
2022/08/07 10:45:27;;;;;;;3.53;2.00;;;23.30;52.50;;;;;;5065349;28;20695;-68
2022/08/07 10:48:01;;;;;;;3.77;2.20;;;23.30;50.80;;;;;;5063227;28;20036;-67
2022/08/07 10:50:53;;;;;;;3.00;2.30;;;23.10;51.50;;;;;;5065089;28;20126;-67
2022/08/07 10:53:18;;;;;;;4.20;2.23;;;22.80;50.90;;;;;;5054375;28;20158;-67
2022/08/07 10:55:52;;;;;;;4.00;2.13;;;22.70;51.70;;;;;;5057966;28;20115;-67
2022/08/07 10:58:43;;;;;;;4.38;2.28;;;22.70;52.00;;;;;;5056049;28;20069;-66
2022/08/07 11:01:22;;;;;;;3.10;1.80;;;22.90;51.30;;;;;;5052198;28;20464;-67
2022/08/07 11:03:55;;;;;;;2.93;2.07;;;23.10;51.00;;;;;;5054623;28;20493;-67
2022/08/07 11:06:58;;;;;;;3.03;2.00;;;23.10;50.60;;;;;;5052436;28;20784;-66
2022/08/07 11:09:30;;;;;;;3.77;1.40;;;22.80;49.20;;;;;;5061349;28;20040;-66
2022/08/07 11:12:03;;;;;;;4.87;1.67;;;22.60;51.00;;;;;;5046694;28;20040;-67
2022/08/07 11:14:40;;;;;;;3.33;1.80;;;22.60;52.40;;;;;;5062720;28;20071;-67
2022/08/07 11:17:16;;;;;;;3.30;1.57;;;22.50;50.90;;;;;;5048453;28;20036;-67
2022/08/07 11:20:00;;;;;;;3.30;1.90;;;22.40;51.70;;;;;;5049497;28;20374;-67
2022/08/07 11:22:50;;;;;;;2.22;1.20;;;22.60;52.00;;;;;;5052469;28;20045;-67
2022/08/07 11:25:21;;;;;;;2.27;1.30;;;22.80;51.50;;;;;;5056082;28;20044;-67
2022/08/07 11:27:50;;;;;;;2.47;1.30;;;22.80;50.10;;;;;;5047531;28;20037;-67
2022/08/07 11:30:19;;;;;;;2.63;1.00;;;23.00;50.00;;;;;;5047371;28;20033;-67
2022/08/07 11:33:05;;;;;;;3.60;1.37;;;23.20;49.70;;;;;;5050703;28;20045;-66
2022/08/07 11:35:53;;;;;;;2.73;1.00;;;23.20;49.30;;;;;;5054559;28;20049;-66
2022/08/07 11:38:47;;;;;;;4.33;1.10;;;23.30;49.20;;;;;;5054095;28;20509;-67
2022/08/07 11:41:17;;;;;;;3.23;1.30;;;23.30;47.50;;;;;;5069521;28;20080;-67
2022/08/07 11:44:07;;;;;;;2.40;0.97;;;23.30;47.70;;;;;;5061087;28;20668;-66
2022/08/07 11:46:33;;;;;;;3.87;1.20;;;23.40;47.40;;;;;;5062768;28;20044;-69
2022/08/07 11:49:24;;;;;;;1.77;0.60;;;23.40;47.50;;;;;;5046567;28;20528;-67
2022/08/07 11:52:41;;;;;;;2.80;0.70;;;23.20;46.90;;;;;;5046457;28;20037;-67
2022/08/07 11:55:40;;;;;;;2.87;0.97;;;23.10;47.10;;;;;;5044381;28;20048;-67
2022/08/07 11:58:46;;;;;;;1.80;1.00;;;22.80;47.60;;;;;;5064401;28;20055;-67
2022/08/07 12:01:25;;;;;;;1.47;0.57;;;22.70;46.90;;;;;;5067099;28;20047;-66
2022/08/07 12:04:21;;;;;;;2.47;0.70;;;22.80;47.10;;;;;;5053159;28;20048;-67
2022/08/07 12:06:55;;;;;;;1.90;0.40;;;22.80;47.00;;;;;;5059618;28;20051;-67
2022/08/07 12:09:45;;;;;;;2.57;0.80;;;22.90;47.10;;;;;;5066880;28;20040;-67
2022/08/07 12:12:24;;;;;;;1.67;0.63;;;23.10;46.80;;;;;;5060501;28;20067;-67
2022/08/07 12:15:02;;;;;;;3.90;1.40;;;23.30;46.80;;;;;;5057821;28;20124;-66
2022/08/07 12:18:00;;;;;;;3.30;0.57;;;23.40;46.10;;;;;;5046116;28;20106;-66
2022/08/07 12:20:36;;;;;;;1.77;0.60;;;23.60;46.60;;;;;;5054777;28;20524;-67
2022/08/07 12:23:11;;;;;;;1.90;0.70;;;23.80;46.20;;;;;;5060224;28;20041;-67
2022/08/07 12:25:53;;;;;;;3.30;1.00;;;23.80;45.60;;;;;;5060913;28;20059;-66
2022/08/07 12:28:31;;;;;;;1.67;0.60;;;23.90;45.20;;;;;;5046088;28;20477;-67
2022/08/07 12:31:04;;;;;;;2.97;0.50;;;23.90;44.70;;;;;;5042258;28;20131;-67
2022/08/07 12:33:31;;;;;;;1.47;0.47;;;24.00;44.20;;;;;;5063723;28;20048;-67
2022/08/07 12:35:58;;;;;;;1.27;0.53;;;23.90;43.70;;;;;;5064164;28;20048;-66
2022/08/07 12:38:25;;;;;;;0.90;0.50;;;24.00;44.20;;;;;;5062611;28;20489;-67
2022/08/07 12:40:54;;;;;;;2.07;0.80;;;24.30;43.40;;;;;;5063628;28;20083;-67
2022/08/07 12:43:23;;;;;;;3.10;0.70;;;24.40;43.00;;;;;;5060703;28;20802;-67
2022/08/07 12:46:09;;;;;;;2.70;0.87;;;24.60;42.90;;;;;;5064282;28;20543;-67
2022/08/07 12:49:16;;;;;;;2.17;0.60;;;24.70;43.50;;;;;;5062637;28;20066;-67
2022/08/07 12:51:49;;;;;;;2.60;0.80;;;24.50;44.60;;;;;;5067598;28;20033;-66
2022/08/07 12:54:29;;;;;;;1.63;0.87;;;24.20;44.90;;;;;;5063438;28;20036;-67
2022/08/07 12:56:58;;;;;;;1.83;1.10;;;24.10;45.30;;;;;;5060883;28;20071;-67
2022/08/07 12:59:27;;;;;;;3.80;1.20;;;24.10;45.50;;;;;;5063674;28;20045;-67
2022/08/07 13:02:15;;;;;;;2.67;1.50;;;24.10;45.30;;;;;;5063338;28;20055;-66
2022/08/07 13:04:59;;;;;;;3.97;1.57;;;23.90;46.30;;;;;;5062754;28;20048;-67
2022/08/07 13:07:46;;;;;;;3.63;1.60;;;23.80;46.50;;;;;;5060067;28;20035;-67
2022/08/07 13:10:40;;;;;;;4.47;1.63;;;23.60;46.70;;;;;;5062921;28;20050;-66
2022/08/07 13:13:15;;;;;;;1.97;1.53;;;23.50;47.10;;;;;;5046515;28;20052;-66
2022/08/07 13:15:59;;;;;;;2.08;1.48;;;23.50;47.20;;;;;;5058455;28;20677;-66
2022/08/07 13:18:43;;;;;;;3.60;1.73;;;23.30;47.30;;;;;;5057435;28;20047;-66
2022/08/07 13:21:15;;;;;;;2.77;1.73;;;23.10;47.30;;;;;;5060783;28;20769;-66
2022/08/07 13:23:51;;;;;;;4.47;1.63;;;22.90;48.10;;;;;;5077042;28;20087;-66